createdAt,value
2018-06-13T00:01:43.524Z,14.12
2018-06-13T00:04:18.070Z,14.33
2018-06-13T00:06:48.091Z,14.20
2018-06-13T00:09:22.684Z,14.40
2018-06-13T00:11:55.593Z,14.32
2018-06-13T00:14:25.732Z,14.53
2018-06-13T00:16:58.776Z,14.41
2018-06-13T00:19:33.258Z,14.40
2018-06-13T00:22:04.777Z,14.42
2018-06-13T00:24:37.926Z,14.62
2018-06-13T00:27:10.927Z,14.56
2018-06-13T00:29:44.764Z,14.62
2018-06-13T00:32:16.353Z,14.54
2018-06-13T00:34:49.039Z,14.65
2018-06-13T00:37:22.483Z,14.56
2018-06-13T00:39:52.438Z,14.37
2018-06-13T00:42:26.874Z,14.33
2018-06-13T00:45:00.901Z,14.42
2018-06-13T00:47:32.313Z,14.34
2018-06-13T00:50:02.742Z,14.34
2018-06-13T00:52:36.102Z,14.40
2018-06-13T00:55:08.102Z,14.50
2018-06-13T00:57:41.282Z,14.52
2018-06-13T01:00:14.574Z,14.56
2018-06-13T01:02:46.230Z,14.66
2018-06-13T01:05:20.736Z,14.64
2018-06-13T01:07:53.794Z,14.67
2018-06-13T01:10:25.304Z,14.71
2018-06-13T01:12:59.904Z,14.72
2018-06-13T01:15:32.879Z,14.68
2018-06-13T01:18:07.384Z,14.68
2018-06-13T01:20:40.372Z,14.72
2018-06-13T01:23:13.510Z,14.73
2018-06-13T01:25:46.663Z,14.74
2018-06-13T01:28:21.478Z,14.75
2018-06-13T01:30:52.735Z,14.80
2018-06-13T01:33:24.981Z,14.79
2018-06-13T01:35:58.242Z,14.76
2018-06-13T01:38:29.806Z,14.80
2018-06-13T01:41:04.701Z,14.80
2018-06-13T01:43:37.753Z,14.79
2018-06-13T01:46:11.251Z,14.67
2018-06-13T01:48:45.998Z,14.66
2018-06-13T01:51:19.099Z,14.59
2018-06-13T01:53:51.989Z,14.68
2018-06-13T01:56:26.565Z,14.66
2018-06-13T01:58:58.031Z,14.73
2018-06-13T02:01:29.741Z,14.73
2018-06-13T02:04:01.239Z,14.64
2018-06-13T02:06:35.951Z,14.71
2018-06-13T02:09:10.942Z,14.68
2018-06-13T02:11:40.856Z,14.67
2018-06-13T02:14:12.938Z,14.66
2018-06-13T02:16:47.747Z,14.62
2018-06-13T02:19:21.400Z,14.81
2018-06-13T02:21:56.626Z,14.75
2018-06-13T02:24:31.036Z,14.75
2018-06-13T02:27:04.393Z,14.58
2018-06-13T02:29:38.290Z,14.38
2018-06-13T02:32:09.821Z,14.34
2018-06-13T02:34:42.799Z,14.40
2018-06-13T02:37:17.737Z,14.16
2018-06-13T02:39:52.226Z,14.10
2018-06-13T02:42:23.696Z,13.89
2018-06-13T02:44:55.591Z,13.71
2018-06-13T02:47:28.295Z,13.51
2018-06-13T02:49:58.337Z,13.59
2018-06-13T02:52:29.135Z,13.47
2018-06-13T02:55:01.831Z,13.50
2018-06-13T02:57:35.835Z,13.56
2018-06-13T03:00:10.768Z,13.51
2018-06-13T03:02:43.769Z,13.51
2018-06-13T03:05:16.944Z,13.65
2018-06-13T03:07:49.797Z,13.78
2018-06-13T03:10:22.241Z,13.89
2018-06-13T03:12:52.131Z,13.84
2018-06-13T03:15:23.576Z,13.83
2018-06-13T03:17:56.695Z,13.91
2018-06-13T03:20:28.245Z,13.97
2018-06-13T03:23:01.414Z,14.09
2018-06-13T03:25:32.986Z,14.07
2018-06-13T03:28:05.963Z,14.03
2018-06-13T03:30:36.611Z,14.06
2018-06-13T03:33:09.688Z,14.06
2018-06-13T03:35:43.263Z,14.07
2018-06-13T03:38:18.193Z,13.98
2018-06-13T03:40:51.608Z,13.99
2018-06-13T03:43:23.032Z,13.89
2018-06-13T03:45:54.934Z,13.98
2018-06-13T03:48:28.745Z,14.10
2018-06-13T03:51:01.541Z,13.95
2018-06-13T03:53:35.399Z,14.06
2018-06-13T03:56:06.202Z,14.14
2018-06-13T03:58:37.879Z,14.05
2018-06-13T04:01:09.336Z,14.16
2018-06-13T04:03:42.606Z,14.17
2018-06-13T04:06:15.131Z,14.22
2018-06-13T04:08:46.287Z,14.23
2018-06-13T04:11:17.923Z,14.27
2018-06-13T04:13:52.818Z,14.17
2018-06-13T04:16:24.369Z,14.20
2018-06-13T04:18:57.637Z,14.10
2018-06-13T04:21:30.691Z,14.29
2018-06-13T04:24:05.312Z,14.21
2018-06-13T04:26:38.247Z,14.25
2018-06-13T04:29:12.037Z,14.31
2018-06-13T04:31:46.518Z,14.29
2018-06-13T04:34:18.137Z,14.30
2018-06-13T04:36:51.319Z,14.28
2018-06-13T04:39:24.769Z,14.25
2018-06-13T04:41:57.697Z,14.32
2018-06-13T04:44:29.148Z,14.40
2018-06-13T04:47:00.635Z,14.41
2018-06-13T04:49:34.071Z,14.46
2018-06-13T04:52:05.920Z,14.42
2018-06-13T04:54:40.777Z,14.43
2018-06-13T04:57:14.009Z,14.50
2018-06-13T04:59:45.700Z,14.41
2018-06-13T05:02:15.610Z,14.56
2018-06-13T05:04:46.822Z,14.51
2018-06-13T05:07:19.869Z,14.61
2018-06-13T05:09:51.484Z,14.66
2018-06-13T05:12:24.782Z,14.74
2018-06-13T05:14:57.257Z,14.83
2018-06-13T05:17:28.966Z,14.87
2018-06-13T05:19:59.141Z,14.95
2018-06-13T05:22:30.897Z,14.98
2018-06-13T05:25:03.491Z,15.04
2018-06-13T05:27:36.358Z,15.02
2018-06-13T05:30:09.320Z,15.15
2018-06-13T05:32:42.454Z,15.16
2018-06-13T05:35:15.477Z,14.96
2018-06-13T05:37:48.599Z,15.16
2018-06-13T05:40:21.945Z,15.17
2018-06-13T05:42:54.994Z,15.16
2018-06-13T05:45:28.103Z,15.34
2018-06-13T05:48:01.174Z,15.44
2018-06-13T05:50:34.040Z,15.30
2018-06-13T05:53:05.586Z,15.61
2018-06-13T05:55:38.999Z,15.48
2018-06-13T05:58:12.040Z,15.49
2018-06-13T06:00:44.960Z,15.78
2018-06-13T06:03:18.262Z,15.89
2018-06-13T06:05:51.366Z,15.75
2018-06-13T06:08:26.013Z,15.75
2018-06-13T06:10:57.639Z,15.94
2018-06-13T06:13:30.776Z,16.12
2018-06-13T06:16:05.712Z,15.91
2018-06-13T06:18:40.392Z,16.15
2018-06-13T06:21:11.867Z,16.13
2018-06-13T06:23:41.961Z,15.98
2018-06-13T06:26:13.125Z,15.57
2018-06-13T06:28:46.292Z,15.81
2018-06-13T06:31:20.926Z,16.17
2018-06-13T06:33:52.450Z,16.12
2018-06-13T06:36:25.723Z,16.31
2018-06-13T06:39:00.816Z,16.49
2018-06-13T06:41:33.773Z,16.58
2018-06-13T06:44:07.051Z,16.63
2018-06-13T06:46:40.071Z,16.75
2018-06-13T06:49:13.461Z,17.24
2018-06-13T06:51:45.363Z,17.19
2018-06-13T06:54:18.533Z,17.29
2018-06-13T06:56:49.958Z,17.84
2018-06-13T06:59:23.059Z,18.30
2018-06-13T07:01:56.005Z,17.68
2018-06-13T07:04:29.774Z,17.52
2018-06-13T07:07:02.656Z,17.89
2018-06-13T07:09:34.399Z,18.13
2018-06-13T07:12:05.976Z,18.12
2018-06-13T07:14:35.871Z,17.70
2018-06-13T07:17:06.179Z,17.90
2018-06-13T07:19:38.660Z,17.68
2018-06-13T07:22:11.152Z,18.16
2018-06-13T07:24:44.099Z,18.96
2018-06-13T07:27:18.495Z,19.44
2018-06-13T07:29:51.438Z,19.72
2018-06-13T07:32:23.697Z,20.29
2018-06-13T07:34:58.245Z,19.63
2018-06-13T07:37:31.131Z,19.26
2018-06-13T07:40:04.321Z,19.11
2018-06-13T07:42:38.780Z,19.61
2018-06-13T07:45:11.784Z,19.89
2018-06-13T07:47:46.388Z,19.95
2018-06-13T07:50:19.292Z,19.54
2018-06-13T07:52:49.251Z,18.85
2018-06-13T07:55:22.209Z,19.63
2018-06-13T07:57:53.519Z,19.47
2018-06-13T08:00:24.972Z,19.16
2018-06-13T08:02:55.537Z,18.87
2018-06-13T08:05:26.953Z,19.32
2018-06-13T08:07:58.337Z,19.22
2018-06-13T08:10:30.977Z,18.98
2018-06-13T08:13:03.920Z,18.55
2018-06-13T08:15:37.745Z,18.52
2018-06-13T08:18:09.404Z,18.52
2018-06-13T08:20:40.772Z,17.86
2018-06-13T08:23:15.657Z,17.52
2018-06-13T08:25:46.312Z,17.52
2018-06-13T08:28:19.206Z,17.71
2018-06-13T08:30:52.132Z,17.45
2018-06-13T08:33:24.346Z,17.33
2018-06-13T08:35:54.321Z,17.23
2018-06-13T08:38:25.985Z,17.27
2018-06-13T08:40:57.560Z,17.47
2018-06-13T08:43:30.468Z,17.54
2018-06-13T08:46:03.480Z,17.23
2018-06-13T08:48:35.121Z,17.35
2018-06-13T08:51:07.967Z,17.32
2018-06-13T08:53:39.463Z,17.66
2018-06-13T08:56:13.158Z,17.47
2018-06-13T08:58:45.109Z,17.44
2018-06-13T09:01:18.077Z,17.50
2018-06-13T09:03:51.581Z,17.86
2018-06-13T09:06:24.397Z,18.16
2018-06-13T09:08:54.403Z,18.32
2018-06-13T09:11:27.643Z,18.07
2018-06-13T09:14:00.756Z,18.80
2018-06-13T09:16:35.337Z,18.74
2018-06-13T09:19:07.572Z,18.91
2018-06-13T09:21:38.203Z,18.46
2018-06-13T09:24:09.381Z,18.22
2018-06-13T09:26:40.962Z,18.49
2018-06-13T09:29:15.408Z,18.76
2018-06-13T09:31:46.824Z,19.16
2018-06-13T09:34:19.771Z,20.18
2018-06-13T09:36:50.024Z,20.96
2018-06-13T09:39:22.837Z,20.59
2018-06-13T09:42:06.554Z,21.06
2018-06-13T09:44:38.624Z,21.82
2018-06-13T09:47:15.138Z,21.48
2018-06-13T09:49:44.447Z,21.47
2018-06-13T09:52:17.320Z,21.25
2018-06-13T09:54:48.836Z,20.27
2018-06-13T09:57:20.217Z,19.64
2018-06-13T10:00:10.764Z,19.34
2018-06-13T10:02:42.327Z,19.25
2018-06-13T10:05:13.794Z,18.61
2018-06-13T10:07:46.843Z,18.62
2018-06-13T10:10:16.796Z,18.42
2018-06-13T10:12:48.421Z,18.41
2018-06-13T10:15:22.873Z,19.03
2018-06-13T10:17:56.380Z,19.24
2018-06-13T10:20:28.521Z,18.94
2018-06-13T10:23:00.049Z,19.35
2018-06-13T10:25:31.626Z,19.44
2018-06-13T10:28:01.534Z,19.49
2018-06-13T10:30:34.515Z,19.96
2018-06-13T10:33:04.432Z,21.08
2018-06-13T10:35:36.224Z,21.50
2018-06-13T10:38:10.520Z,22.01
2018-06-13T10:40:46.118Z,21.17
2018-06-13T10:43:16.696Z,20.17
2018-06-13T10:45:49.874Z,20.03
2018-06-13T10:48:21.463Z,20.06
2018-06-13T10:50:53.415Z,20.85
2018-06-13T10:53:24.930Z,20.77
2018-06-13T10:55:58.264Z,21.26
2018-06-13T10:58:31.295Z,20.12
2018-06-13T11:01:01.277Z,19.71
2018-06-13T11:03:35.773Z,19.01
2018-06-13T11:06:08.686Z,18.62
2018-06-13T11:08:41.690Z,18.63
2018-06-13T11:11:14.486Z,18.29
2018-06-13T11:13:46.087Z,17.90
2018-06-13T11:16:17.554Z,18.04
2018-06-13T11:18:50.764Z,17.81
2018-06-13T11:21:22.282Z,17.90
2018-06-13T11:23:53.762Z,17.87
2018-06-13T11:26:25.495Z,18.31
2018-06-13T11:28:58.512Z,18.55
2018-06-13T11:31:30.158Z,18.42
2018-06-13T11:34:04.763Z,18.81
2018-06-13T11:36:37.922Z,18.59
2018-06-13T11:39:14.055Z,19.36
2018-06-13T11:41:44.125Z,19.55
2018-06-13T11:44:18.669Z,19.57
2018-06-13T11:46:50.325Z,19.45
2018-06-13T11:49:21.901Z,19.34
2018-06-13T11:51:54.132Z,19.79
2018-06-13T11:54:24.041Z,19.63
2018-06-13T11:56:55.555Z,19.86
2018-06-13T11:59:26.933Z,20.29
2018-06-13T12:01:57.828Z,20.08
2018-06-13T12:04:29.437Z,19.73
2018-06-13T12:07:01.151Z,19.82
2018-06-13T12:09:32.640Z,19.91
2018-06-13T12:12:02.653Z,19.88
2018-06-13T12:14:35.597Z,19.58
2018-06-13T12:17:08.610Z,19.48
2018-06-13T12:19:41.543Z,19.51
2018-06-13T12:22:12.036Z,19.91
2018-06-13T12:24:46.683Z,19.66
2018-06-13T12:27:21.112Z,19.61
2018-06-13T12:29:54.324Z,19.39
2018-06-13T12:32:25.736Z,19.23
2018-06-13T12:34:57.681Z,19.49
2018-06-13T12:37:30.607Z,19.13
2018-06-13T12:40:02.038Z,19.28
2018-06-13T12:42:35.161Z,19.53
2018-06-13T12:45:09.828Z,19.30
2018-06-13T12:47:41.326Z,18.81
2018-06-13T12:50:14.295Z,19.01
2018-06-13T12:52:44.803Z,18.66
2018-06-13T12:55:14.729Z,18.46
2018-06-13T12:57:46.340Z,18.68
2018-06-13T13:00:17.822Z,18.37
2018-06-13T13:02:50.997Z,18.60
2018-06-13T13:05:24.192Z,18.24
2018-06-13T13:07:57.401Z,18.36
2018-06-13T13:10:32.281Z,18.88
2018-06-13T13:13:05.648Z,18.66
2018-06-13T13:15:39.484Z,18.85
2018-06-13T13:18:10.031Z,18.91
2018-06-13T13:20:42.989Z,19.44
2018-06-13T13:23:14.728Z,19.49
2018-06-13T13:25:47.843Z,19.59
2018-06-13T13:28:21.213Z,19.25
2018-06-13T13:30:54.178Z,19.36
2018-06-13T13:33:25.750Z,19.86
2018-06-13T13:35:59.031Z,19.65
2018-06-13T13:38:32.550Z,19.92
2018-06-13T13:41:04.262Z,20.12
2018-06-13T13:43:35.713Z,19.45
2018-06-13T13:46:08.612Z,19.98
2018-06-13T13:48:41.628Z,20.20
2018-06-13T13:51:15.974Z,20.61
2018-06-13T13:53:48.928Z,20.88
2018-06-13T13:56:20.873Z,21.23
2018-06-13T13:58:52.449Z,20.28
2018-06-13T14:01:25.525Z,20.26
2018-06-13T14:03:56.963Z,20.23
2018-06-13T14:06:29.827Z,19.96
2018-06-13T14:09:00.588Z,19.84
2018-06-13T14:11:30.600Z,19.95
2018-06-13T14:14:03.817Z,20.31
2018-06-13T14:16:33.728Z,19.88
2018-06-13T14:19:05.173Z,19.56
2018-06-13T14:21:36.104Z,19.29
2018-06-13T14:24:09.339Z,19.67
2018-06-13T14:26:43.705Z,19.49
2018-06-13T14:29:17.031Z,19.38
2018-06-13T14:31:48.319Z,19.03
2018-06-13T14:34:21.200Z,19.45
2018-06-13T14:36:54.111Z,19.64
2018-06-13T14:39:25.572Z,19.80
2018-06-13T14:41:58.466Z,19.89
2018-06-13T14:44:31.404Z,19.80
2018-06-13T14:47:04.428Z,19.43
2018-06-13T14:49:37.635Z,19.85
2018-06-13T14:52:10.452Z,19.81
2018-06-13T14:54:43.689Z,19.87
2018-06-13T14:57:18.951Z,20.24
2018-06-13T14:59:49.058Z,20.38
2018-06-13T15:02:21.352Z,20.57
2018-06-13T15:04:55.760Z,21.09
2018-06-13T15:07:26.339Z,20.86
2018-06-13T15:09:57.831Z,20.71
2018-06-13T15:12:29.502Z,21.00
2018-06-13T15:15:02.391Z,20.69
2018-06-13T15:17:35.292Z,20.44
2018-06-13T15:20:09.627Z,20.64
2018-06-13T15:22:40.190Z,20.37
2018-06-13T15:25:13.205Z,20.74
2018-06-13T15:27:43.089Z,20.91
2018-06-13T15:30:16.091Z,20.53
2018-06-13T15:32:50.439Z,20.20
2018-06-13T15:35:22.568Z,20.75
2018-06-13T15:37:55.504Z,20.78
2018-06-13T15:40:28.436Z,20.16
2018-06-13T15:42:58.355Z,20.17
2018-06-13T15:45:29.830Z,20.18
2018-06-13T15:48:04.465Z,20.12
2018-06-13T15:50:34.362Z,20.41
2018-06-13T15:53:04.906Z,20.16
2018-06-13T15:55:34.909Z,20.47
2018-06-13T15:58:06.293Z,20.07
2018-06-13T16:00:37.892Z,20.50
2018-06-13T16:03:11.800Z,19.86
2018-06-13T16:05:44.730Z,20.55
2018-06-13T16:08:17.087Z,20.65
2018-06-13T16:10:49.943Z,20.56
2018-06-13T16:13:21.472Z,20.14
2018-06-13T16:15:54.424Z,20.33
2018-06-13T16:18:25.928Z,20.00
2018-06-13T16:20:59.333Z,19.68
2018-06-13T16:23:32.685Z,19.91
2018-06-13T16:26:05.726Z,20.05
2018-06-13T16:28:38.549Z,20.27
2018-06-13T16:31:12.837Z,20.26
2018-06-13T16:33:45.372Z,19.94
2018-06-13T16:36:18.335Z,19.97
2018-06-13T16:38:51.296Z,20.27
2018-06-13T16:41:23.318Z,20.13
2018-06-13T16:43:54.804Z,20.21
2018-06-13T16:46:26.255Z,20.05
2018-06-13T16:48:59.780Z,20.19
2018-06-13T16:51:57.724Z,20.30
2018-06-13T16:54:59.896Z,20.34
2018-06-13T16:57:29.804Z,20.61
2018-06-13T17:00:01.208Z,20.50
2018-06-13T17:02:33.042Z,20.63
2018-06-13T17:05:03.006Z,20.37
2018-06-13T17:07:34.483Z,20.66
2018-06-13T17:10:07.672Z,20.55
2018-06-13T17:12:40.795Z,20.69
2018-06-13T17:15:11.359Z,20.57
2018-06-13T17:17:44.331Z,20.68
2018-06-13T17:20:19.181Z,21.03
2018-06-13T17:22:49.170Z,20.92
2018-06-13T17:25:19.131Z,20.15
2018-06-13T17:27:53.877Z,19.97
2018-06-13T17:30:25.400Z,20.32
2018-06-13T17:32:56.755Z,20.08
2018-06-13T17:35:29.770Z,19.63
2018-06-13T17:37:59.886Z,20.16
2018-06-13T17:40:32.089Z,20.16
2018-06-13T17:43:06.627Z,20.11
2018-06-13T17:45:36.584Z,20.00
2018-06-13T17:48:08.195Z,19.87
2018-06-13T17:50:42.874Z,19.70
2018-06-13T17:53:15.639Z,19.76
2018-06-13T17:55:47.072Z,19.91
2018-06-13T17:58:20.282Z,19.72
2018-06-13T18:00:51.913Z,19.58
2018-06-13T18:03:25.362Z,19.47
2018-06-13T18:05:56.721Z,19.23
2018-06-13T18:08:29.724Z,19.19
2018-06-13T18:11:04.252Z,19.32
2018-06-13T18:13:35.736Z,19.36
2018-06-13T18:16:07.210Z,19.15
2018-06-13T18:18:39.107Z,19.02
2018-06-13T18:21:10.695Z,18.96
2018-06-13T18:23:42.210Z,18.82
2018-06-13T18:26:15.377Z,18.82
2018-06-13T18:28:45.271Z,18.83
2018-06-13T18:31:18.354Z,18.80
2018-06-13T18:33:50.583Z,18.88
2018-06-13T18:36:20.447Z,18.89
2018-06-13T18:38:51.142Z,18.90
2018-06-13T18:41:23.071Z,18.84
2018-06-13T18:43:57.432Z,18.67
2018-06-13T18:46:27.377Z,18.58
2018-06-13T18:49:01.702Z,18.30
2018-06-13T18:51:33.219Z,18.16
2018-06-13T18:54:04.617Z,18.24
2018-06-13T18:56:37.655Z,18.26
2018-06-13T18:59:09.076Z,18.14
2018-06-13T19:01:42.073Z,17.97
2018-06-13T19:04:14.055Z,17.83
2018-06-13T19:06:48.315Z,17.78
2018-06-13T19:09:21.243Z,17.76
2018-06-13T19:11:55.688Z,17.75
2018-06-13T19:14:27.528Z,17.84
2018-06-13T19:16:58.015Z,17.62
2018-06-13T19:19:29.523Z,17.49
2018-06-13T19:22:02.169Z,17.58
2018-06-13T19:24:35.128Z,17.36
2018-06-13T19:27:07.989Z,17.18
2018-06-13T19:29:39.721Z,17.13
2018-06-13T19:32:11.409Z,17.02
2018-06-13T19:34:42.869Z,16.78
2018-06-13T19:37:15.856Z,16.85
2018-06-13T19:39:47.471Z,16.65
2018-06-13T19:42:20.710Z,16.61
2018-06-13T19:44:53.656Z,16.65
2018-06-13T19:47:42.930Z,16.69
2018-06-13T19:50:16.126Z,16.69
2018-06-13T19:53:04.759Z,16.79
2018-06-13T19:55:55.359Z,16.80
2018-06-13T19:58:28.460Z,16.79
2018-06-13T20:01:01.975Z,16.76
2018-06-13T20:03:51.250Z,16.72
2018-06-13T20:06:24.521Z,16.63
2018-06-13T20:08:56.983Z,16.60
2018-06-13T20:11:29.923Z,16.39
2018-06-13T20:14:17.529Z,16.03
2018-06-13T20:17:07.506Z,15.92
2018-06-13T20:19:42.540Z,16.08
2018-06-13T20:22:14.046Z,16.09
2018-06-13T20:25:04.522Z,16.01
2018-06-13T20:27:53.452Z,15.99
2018-06-13T20:30:43.009Z,16.04
2018-06-13T20:33:17.251Z,15.81
2018-06-13T20:35:50.736Z,15.70
2018-06-13T20:38:23.818Z,15.56
2018-06-13T20:40:55.891Z,15.51
2018-06-13T20:43:29.480Z,15.63
2018-06-13T20:46:04.224Z,15.62
2018-06-13T20:48:37.171Z,15.48
2018-06-13T20:51:10.586Z,15.36
2018-06-13T20:53:45.190Z,15.23
2018-06-13T20:56:18.340Z,15.17
2018-06-13T20:58:53.068Z,15.00
2018-06-13T21:01:27.877Z,14.83
2018-06-13T21:04:02.249Z,14.73
2018-06-13T21:06:33.805Z,14.63
2018-06-13T21:09:10.028Z,14.47
2018-06-13T21:11:44.374Z,14.73
2018-06-13T21:14:15.769Z,14.64
2018-06-13T21:16:47.338Z,14.40
2018-06-13T21:19:20.526Z,14.46
2018-06-13T21:21:53.460Z,14.54
2018-06-13T21:24:25.139Z,14.59
2018-06-13T21:26:58.195Z,14.74
2018-06-13T21:29:29.672Z,14.59
2018-06-13T21:32:01.365Z,14.36
2018-06-13T21:34:32.945Z,14.20
2018-06-13T21:37:06.846Z,14.09
2018-06-13T21:39:40.264Z,13.92
2018-06-13T21:42:14.670Z,13.79
2018-06-13T21:44:47.945Z,13.66
2018-06-13T21:47:21.291Z,13.57
2018-06-13T21:49:55.885Z,13.51
2018-06-13T21:52:27.749Z,13.40
2018-06-13T21:54:59.265Z,13.51
2018-06-13T21:57:32.605Z,13.53
2018-06-13T22:00:04.160Z,13.61
2018-06-13T22:02:35.615Z,13.57
2018-06-13T22:05:07.375Z,13.72
2018-06-13T22:07:39.087Z,13.86
2018-06-13T22:10:10.794Z,13.88
2018-06-13T22:12:45.843Z,13.72
2018-06-13T22:15:22.245Z,13.89
2018-06-13T22:17:58.815Z,13.76
2018-06-13T22:20:30.731Z,13.65
2018-06-13T22:23:00.742Z,14.03
2018-06-13T22:25:33.602Z,13.58
2018-06-13T22:28:06.829Z,13.49
2018-06-13T22:30:39.817Z,13.47
2018-06-13T22:33:11.340Z,13.55
2018-06-13T22:35:46.131Z,13.45
2018-06-13T22:38:20.759Z,13.38
2018-06-13T22:40:54.601Z,13.39
2018-06-13T22:43:28.925Z,13.31
2018-06-13T22:46:01.865Z,13.33
2018-06-13T22:48:35.000Z,13.37
2018-06-13T22:51:08.320Z,13.40
2018-06-13T22:53:41.363Z,13.44
2018-06-13T22:56:13.189Z,13.36
2018-06-13T22:58:45.610Z,13.40
2018-06-13T23:01:18.598Z,13.33
2018-06-13T23:03:53.278Z,13.49
2018-06-13T23:06:23.171Z,13.44
2018-06-13T23:08:56.121Z,13.34
2018-06-13T23:11:27.713Z,13.45
2018-06-13T23:14:02.737Z,13.49
2018-06-13T23:16:37.331Z,13.59
2018-06-13T23:19:11.969Z,13.79
2018-06-13T23:21:45.063Z,14.00
2018-06-13T23:24:16.478Z,13.86
2018-06-13T23:26:51.280Z,13.98
2018-06-13T23:29:23.294Z,13.99
2018-06-13T23:31:56.862Z,14.06
2018-06-13T23:34:32.562Z,14.05
2018-06-13T23:37:07.208Z,13.92
2018-06-13T23:39:40.176Z,13.81
2018-06-13T23:42:13.988Z,13.54
2018-06-13T23:44:45.620Z,13.52
2018-06-13T23:47:17.159Z,13.33
2018-06-13T23:49:50.554Z,13.26
2018-06-13T23:52:22.353Z,13.57
2018-06-13T23:54:54.387Z,13.72
2018-06-13T23:57:25.006Z,13.73
2018-06-13T23:59:56.660Z,13.78
